Time;durP1;ratioP1;P1;durP2;ratioP2;P2;SDS_P1;SDS_P2;PMS_P1;PMS_P2;Temp;Humidity;BMP_temperature;BMP_pressure;BME280_temperature;BME280_humidity;BME280_pressure;Samples;Min_cycle;Max_cycle;Signal;HPM_P1;HPM_P2
2023/07/31 00:02:12;;;;;;;;;4.00;3.00;;;;;16.30;79.91;99380.56;5095499;28;9488;-58
2023/07/31 00:04:39;;;;;;;;;1.80;1.80;;;;;16.29;79.96;99374.34;5096063;28;8818;-58
2023/07/31 00:07:07;;;;;;;;;1.00;0.60;;;;;16.30;79.87;99378.72;5095526;28;8834;-58
2023/07/31 00:09:35;;;;;;;;;1.00;1.00;;;;;16.30;79.81;99378.72;5095365;28;8810;-59
2023/07/31 00:12:02;;;;;;;;;3.00;3.00;;;;;16.31;80.00;99377.69;5094881;28;8814;-59
2023/07/31 00:14:30;;;;;;;;;3.00;3.00;;;;;16.30;80.24;99376.03;5095433;28;8826;-59
2023/07/31 00:16:58;;;;;;;;;3.00;3.00;;;;;16.31;80.00;99364.25;5095297;28;8840;-57
2023/07/31 00:19:25;;;;;;;;;3.20;2.20;;;;;16.30;79.91;99364.44;5095749;28;8961;-59
2023/07/31 00:21:53;;;;;;;;;4.00;3.20;;;;;16.31;80.29;99358.88;5095553;28;8818;-59
2023/07/31 00:24:21;;;;;;;;;2.20;1.80;;;;;16.31;79.84;99363.41;5095675;28;8940;-59
2023/07/31 00:26:49;;;;;;;;;1.40;1.40;;;;;16.30;80.51;99353.69;5095639;28;8814;-59
2023/07/31 00:29:16;;;;;;;;;4.00;3.80;;;;;16.30;80.25;99354.53;5095486;28;8791;-59
2023/07/31 00:31:44;;;;;;;;;3.00;1.80;;;;;16.31;80.31;99358.03;5095389;28;8840;-59
2023/07/31 00:34:12;;;;;;;;;1.80;1.80;;;;;16.31;80.17;99353.53;5095451;28;8844;-59
2023/07/31 00:36:39;;;;;;;;;3.40;3.00;;;;;16.32;79.87;99370.50;5095305;28;8830;-59
2023/07/31 00:39:07;;;;;;;;;3.00;3.00;;;;;16.31;80.16;99350.81;5095055;28;8839;-59
2023/07/31 00:41:35;;;;;;;;;3.80;3.80;;;;;16.31;80.83;99356.19;5095251;28;8802;-59
2023/07/31 00:44:02;;;;;;;;;5.60;4.00;;;;;16.31;80.89;99358.88;5095203;28;8802;-58
2023/07/31 00:46:30;;;;;;;;;3.00;3.00;;;;;16.31;80.87;99348.16;5098452;28;8806;-58
2023/07/31 00:48:58;;;;;;;;;3.00;3.00;;;;;16.31;80.62;99353.53;5098842;28;8814;-58
2023/07/31 00:51:26;;;;;;;;;2.80;1.80;;;;;16.31;81.00;99349.97;5098918;28;8837;-58
2023/07/31 00:53:55;;;;;;;;;3.40;3.00;;;;;16.31;80.96;99345.44;5098841;28;8802;-59
2023/07/31 00:56:23;;;;;;;;;2.20;2.20;;;;;16.31;81.25;99350.81;5098810;28;8806;-58
2023/07/31 00:58:51;;;;;;;;;3.00;1.80;;;;;16.31;80.80;99353.53;5098733;28;8832;-57
2023/07/31 01:01:18;;;;;;;;;1.40;1.40;;;;;16.31;80.98;99347.28;5098361;28;8826;-58
2023/07/31 01:03:46;;;;;;;;;1.00;1.00;;;;;16.30;80.57;99349.16;5098636;28;8818;-58
2023/07/31 01:06:14;;;;;;;;;1.00;1.00;;;;;16.31;80.81;99349.97;5098132;28;8806;-58
2023/07/31 01:08:41;;;;;;;;;4.00;3.00;;;;;16.29;80.91;99344.78;5098536;28;8818;-58
2023/07/31 01:11:09;;;;;;;;;1.00;1.00;;;;;16.30;81.27;99337.56;5098341;28;8929;-58
2023/07/31 01:13:37;;;;;;;;;2.20;2.20;;;;;16.28;81.21;99337.75;5098772;28;8833;-58
2023/07/31 01:16:04;;;;;;;;;4.80;4.80;;;;;16.28;80.96;99332.38;5097930;28;8818;-58
2023/07/31 01:18:32;;;;;;;;;4.00;4.00;;;;;16.30;80.92;99338.41;5098481;28;8845;-58
2023/07/31 01:21:00;;;;;;;;;3.00;3.00;;;;;16.31;81.40;99339.22;5097791;28;8811;-59
2023/07/31 01:23:27;;;;;;;;;4.40;4.00;;;;;16.30;81.50;99335.72;5098042;28;8814;-58
2023/07/31 01:25:55;;;;;;;;;4.60;3.00;;;;;16.31;81.82;99348.16;5098278;28;8846;-58
2023/07/31 01:28:22;;;;;;;;;4.00;4.00;;;;;16.31;81.95;99337.41;5098426;28;8837;-58
2023/07/31 01:30:51;;;;;;;;;2.00;2.00;;;;;16.32;81.27;99349.81;5098545;28;8956;-58
2023/07/31 01:33:18;;;;;;;;;7.00;3.40;;;;;16.34;81.46;99341.59;5098121;28;8946;-59
2023/07/31 01:35:46;;;;;;;;;3.40;3.40;;;;;16.35;81.45;99337.88;5097877;28;8850;-58
2023/07/31 01:38:14;;;;;;;;;4.40;4.00;;;;;16.40;81.59;99332.88;5097860;28;8827;-58
2023/07/31 01:40:41;;;;;;;;;6.20;6.00;;;;;16.45;81.05;99343.91;5098047;28;8858;-58
2023/07/31 01:43:09;;;;;;;;;5.60;4.00;;;;;16.50;81.39;99336.19;5097904;28;8808;-58
2023/07/31 01:45:37;;;;;;;;;4.00;1.00;;;;;16.55;81.39;99340.00;5097862;28;8850;-59
2023/07/31 01:48:05;;;;;;;;;3.80;3.60;;;;;16.61;80.76;99350.06;5096710;28;8821;-58
2023/07/31 01:50:32;;;;;;;;;4.00;3.20;;;;;16.63;80.78;99348.03;5097132;28;8806;-59
2023/07/31 01:53:00;;;;;;;;;4.40;4.00;;;;;16.67;80.90;99344.00;5097940;28;8814;-59
2023/07/31 01:55:28;;;;;;;;;3.00;2.20;;;;;16.69;80.54;99344.66;5096819;28;8810;-58
2023/07/31 01:57:55;;;;;;;;;4.00;4.00;;;;;16.72;80.70;99335.41;5097344;28;8840;-59
2023/07/31 02:00:23;;;;;;;;;4.00;4.00;;;;;16.73;80.89;99337.09;5096975;28;8822;-58
2023/07/31 02:02:51;;;;;;;;;6.20;3.80;;;;;16.73;80.93;99323.63;5097103;28;8824;-58
2023/07/31 02:05:18;;;;;;;;;4.00;3.00;;;;;16.74;80.56;99323.47;5097308;28;8945;-58
2023/07/31 02:07:46;;;;;;;;;1.80;1.40;;;;;16.75;80.19;99332.34;5097383;28;8838;-59
2023/07/31 02:10:13;;;;;;;;;1.00;1.00;;;;;16.76;80.39;99337.56;5097257;28;8832;-59
2023/07/31 02:12:41;;;;;;;;;3.60;3.00;;;;;16.78;81.04;99340.91;5098124;28;9475;-57
2023/07/31 02:15:09;;;;;;;;;6.40;5.60;;;;;16.77;80.80;99333.88;5096677;28;8818;-57
2023/07/31 02:17:37;;;;;;;;;3.20;3.00;;;;;16.76;80.61;99326.81;5097825;28;8818;-59
2023/07/31 02:20:04;;;;;;;;;3.00;3.00;;;;;16.75;80.37;99321.59;5096759;28;9058;-58
2023/07/31 02:22:32;;;;;;;;;3.40;2.60;;;;;16.75;80.57;99327.84;5097252;28;8822;-59
2023/07/31 02:24:59;;;;;;;;;3.80;3.20;;;;;16.75;80.74;99316.22;5097239;28;8833;-59
2023/07/31 02:27:27;;;;;;;;;3.00;2.60;;;;;16.74;80.45;99323.47;5097075;28;8829;-59
2023/07/31 02:29:55;;;;;;;;;1.00;1.00;;;;;16.75;80.51;99324.28;5097127;28;8795;-59
2023/07/31 02:32:23;;;;;;;;;3.80;3.80;;;;;16.76;80.36;99316.06;5097239;28;9539;-59
2023/07/31 02:34:50;;;;;;;;;3.80;3.80;;;;;16.77;80.84;99330.31;5097261;28;8810;-59
2023/07/31 02:37:18;;;;;;;;;2.80;2.80;;;;;16.78;80.49;99305.13;5096961;28;8841;-57
2023/07/31 02:39:46;;;;;;;;;6.40;4.40;;;;;16.78;80.91;99322.09;5096625;28;8825;-58
2023/07/31 02:42:13;;;;;;;;;4.00;3.00;;;;;16.77;80.48;99308.81;5097338;28;8844;-59
2023/07/31 02:44:41;;;;;;;;;4.00;4.00;;;;;16.74;80.54;99318.09;5096300;28;8826;-59
2023/07/31 02:47:08;;;;;;;;;3.80;3.80;;;;;16.72;80.57;99308.53;5096604;28;8794;-59
2023/07/31 02:49:36;;;;;;;;;3.00;3.00;;;;;16.73;80.79;99315.56;5096732;28;8807;-59
2023/07/31 02:52:04;;;;;;;;;3.00;3.00;;;;;16.74;80.54;99312.72;5096825;28;8830;-59
2023/07/31 02:54:31;;;;;;;;;3.00;3.00;;;;;16.75;80.96;99311.69;5096487;28;8842;-58
2023/07/31 02:56:59;;;;;;;;;3.00;3.00;;;;;16.78;80.50;99305.94;5096713;28;8821;-59
2023/07/31 02:59:27;;;;;;;;;5.20;4.80;;;;;16.80;80.70;99306.59;5096347;28;8826;-59
2023/07/31 03:01:54;;;;;;;;;1.80;1.00;;;;;16.82;80.15;99303.75;5096553;28;8845;-59
2023/07/31 03:04:22;;;;;;;;;5.60;4.00;;;;;16.83;80.29;99300.91;5096329;28;8810;-59
2023/07/31 03:06:49;;;;;;;;;1.00;1.00;;;;;16.84;80.31;99297.19;5096187;28;8858;-59
2023/07/31 03:09:17;;;;;;;;;1.40;1.00;;;;;16.85;80.81;99306.94;5095965;28;8841;-60
2023/07/31 03:11:44;;;;;;;;;2.40;2.20;;;;;16.84;80.13;99296.34;5096476;28;8818;-59
2023/07/31 03:14:12;;;;;;;;;5.60;3.40;;;;;16.84;80.34;99302.56;5096128;28;8814;-58
2023/07/31 03:16:42;;;;;;;;;5.80;3.20;;;;;16.87;80.54;99301.38;5096226;28;8899;-59
2023/07/31 03:19:10;;;;;;;;;3.00;1.00;;;;;16.86;80.07;99292.47;5096336;28;8858;-58
2023/07/31 03:21:37;;;;;;;;;6.00;4.00;;;;;16.87;80.36;99298.69;5095956;28;8830;-59
2023/07/31 03:24:05;;;;;;;;;2.60;2.60;;;;;16.88;80.20;99290.44;5096283;28;8822;-59
2023/07/31 03:26:33;;;;;;;;;1.00;1.00;;;;;16.87;80.40;99299.50;5096366;28;8808;-59
2023/07/31 03:29:01;;;;;;;;;0.80;0.00;;;;;16.87;79.81;99291.44;5096294;28;8842;-59
2023/07/31 03:31:28;;;;;;;;;3.00;2.60;;;;;16.87;80.04;99286.06;5095840;28;8820;-60
2023/07/31 03:33:56;;;;;;;;;2.20;2.20;;;;;16.88;80.33;99292.28;5095608;28;8826;-59
2023/07/31 03:36:24;;;;;;;;;4.00;4.00;;;;;16.88;79.88;99295.84;5095712;28;8840;-60
2023/07/31 03:38:51;;;;;;;;;2.60;2.20;;;;;16.90;79.96;99285.72;5096065;28;8838;-59
2023/07/31 03:41:19;;;;;;;;;6.60;4.40;;;;;16.90;80.23;99280.34;5096187;28;8827;-60
2023/07/31 03:43:46;;;;;;;;;4.40;4.40;;;;;16.90;80.36;99277.66;5095861;28;8841;-59
2023/07/31 03:46:14;;;;;;;;;1.00;1.00;;;;;16.92;79.97;99285.53;5095820;28;8829;-60
2023/07/31 03:48:42;;;;;;;;;3.80;3.20;;;;;16.92;79.51;99283.69;5095656;28;8818;-59
2023/07/31 03:51:09;;;;;;;;;3.20;3.00;;;;;16.95;79.37;99282.50;5095809;28;9528;-59
2023/07/31 03:53:37;;;;;;;;;3.60;3.00;;;;;16.95;79.75;99286.00;5095508;28;9577;-59
2023/07/31 03:56:04;;;;;;;;;4.80;3.40;;;;;16.98;79.41;99285.66;5095189;28;8814;-59
2023/07/31 03:58:32;;;;;;;;;2.20;1.00;;;;;17.01;79.14;99290.69;5095412;28;8806;-60
2023/07/31 04:01:00;;;;;;;;;4.00;3.60;;;;;17.04;79.43;99284.97;5095704;28;9468;-58
2023/07/31 04:03:28;;;;;;;;;1.80;1.80;;;;;17.05;79.19;99286.63;5095399;28;8817;-57
2023/07/31 04:05:56;;;;;;;;;3.40;3.40;;;;;17.09;79.68;99289.81;5095067;28;8828;-60
2023/07/31 04:08:23;;;;;;;;;1.40;1.40;;;;;17.12;79.08;99290.28;5095333;28;8826;-60
2023/07/31 04:10:51;;;;;;;;;3.40;1.40;;;;;17.14;79.29;99273.94;5094834;28;8810;-60
2023/07/31 04:13:19;;;;;;;;;1.40;1.40;;;;;17.18;79.34;99281.50;5095770;28;8806;-59
2023/07/31 04:15:47;;;;;;;;;5.00;3.60;;;;;17.20;78.88;99282.16;5094337;28;8837;-60
2023/07/31 04:18:15;;;;;;;;;2.60;2.60;;;;;17.24;78.58;99285.31;5095241;28;8956;-59
2023/07/31 04:20:42;;;;;;;;;3.60;3.00;;;;;17.26;78.98;99286.81;5098740;28;8806;-60
2023/07/31 04:23:10;;;;;;;;;3.40;3.00;;;;;17.29;78.66;99280.22;5099087;28;8885;-60
2023/07/31 04:25:38;;;;;;;;;3.00;3.00;;;;;17.31;79.04;99272.81;5099193;28;8810;-60
2023/07/31 04:28:05;;;;;;;;;4.00;3.20;;;;;17.32;78.74;99278.00;5098908;28;8825;-60
2023/07/31 04:30:33;;;;;;;;;4.00;3.60;;;;;17.36;78.67;99279.34;5098600;28;8822;-59
2023/07/31 04:33:01;;;;;;;;;5.20;4.00;;;;;17.40;78.46;99274.44;5099051;28;8839;-60
2023/07/31 04:35:28;;;;;;;;;0.00;0.00;;;;;17.43;78.61;99269.53;5098264;28;8803;-60
2023/07/31 04:37:56;;;;;;;;;4.40;4.40;;;;;17.45;77.99;99275.56;5098547;28;8826;-60
2023/07/31 04:40:24;;;;;;;;;6.20;5.20;;;;;17.48;78.29;99269.81;5098092;28;8853;-61
2023/07/31 04:42:51;;;;;;;;;3.20;3.00;;;;;17.48;78.01;99275.19;5098599;28;8872;-60
2023/07/31 04:45:19;;;;;;;;;5.60;5.60;;;;;17.52;77.91;99268.44;5098657;28;8825;-61
2023/07/31 04:47:47;;;;;;;;;3.40;1.40;;;;;17.52;78.22;99271.13;5098918;28;8952;-60
2023/07/31 04:50:15;;;;;;;;;4.20;3.80;;;;;17.53;78.00;99277.38;5098843;28;8830;-59
2023/07/31 04:52:42;;;;;;;;;2.60;2.60;;;;;17.54;78.38;99271.78;5098575;28;8868;-60
2023/07/31 04:55:10;;;;;;;;;3.60;3.60;;;;;17.56;78.04;99277.84;5097768;28;8814;-61
2023/07/31 04:57:37;;;;;;;;;0.80;0.80;;;;;17.57;77.96;99268.75;5098913;28;8826;-60
2023/07/31 05:00:05;;;;;;;;;2.60;2.60;;;;;17.58;77.89;99256.94;5078304;28;8813;-60
2023/07/31 05:02:33;;;;;;;;;3.80;3.00;;;;;17.60;78.19;99262.97;5096112;28;8814;-59
2023/07/31 05:05:00;;;;;;;;;4.40;4.40;;;;;17.63;78.08;99253.69;5098661;28;8826;-60
2023/07/31 05:07:28;;;;;;;;;5.80;3.40;;;;;17.63;78.22;99246.44;5097972;28;8811;-60
2023/07/31 05:09:56;;;;;;;;;3.40;3.00;;;;;17.61;78.66;99258.44;5098472;28;8814;-60
2023/07/31 05:12:25;;;;;;;;;4.00;4.00;;;;;17.46;78.42;99254.88;5097931;28;8814;-60
2023/07/31 05:14:53;;;;;;;;;3.00;3.00;;;;;17.30;79.11;99246.91;5098178;28;8814;-59
2023/07/31 05:17:21;;;;;;;;;3.60;3.40;;;;;17.16;79.50;99243.13;5097419;28;8814;-60
2023/07/31 05:19:49;;;;;;;;;4.00;3.60;;;;;17.05;79.65;99250.81;5097613;28;8804;-59
2023/07/31 05:22:16;;;;;;;;;4.00;4.00;;;;;17.00;79.60;99253.22;5097786;28;8798;-60
2023/07/31 05:24:44;;;;;;;;;4.40;4.00;;;;;16.97;80.03;99250.88;5097496;28;8833;-60
2023/07/31 05:27:12;;;;;;;;;4.00;4.00;;;;;16.95;79.68;99253.72;5097895;28;8888;-60
2023/07/31 05:29:40;;;;;;;;;2.80;2.60;;;;;16.96;79.88;99241.97;5097612;28;8814;-60
2023/07/31 05:32:08;;;;;;;;;3.20;3.00;;;;;17.00;80.11;99235.19;5097240;28;8822;-60
2023/07/31 05:34:36;;;;;;;;;5.00;3.00;;;;;17.04;79.59;99228.47;5097294;28;8945;-60
2023/07/31 05:37:03;;;;;;;;;5.60;5.40;;;;;17.10;79.68;99222.34;5097579;28;8859;-60
2023/07/31 05:39:32;;;;;;;;;4.00;4.00;;;;;17.17;79.71;99227.84;5097260;28;9505;-60
2023/07/31 05:41:59;;;;;;;;;3.00;3.00;;;;;17.24;79.54;99224.22;5097871;28;8838;-60
2023/07/31 05:44:27;;;;;;;;;7.20;6.20;;;;;17.33;79.11;99223.13;5097136;28;8811;-60
2023/07/31 05:46:55;;;;;;;;;3.00;3.00;;;;;17.41;78.75;99216.88;5096695;28;8848;-59
2023/07/31 05:49:22;;;;;;;;;6.20;6.00;;;;;17.49;78.37;99223.03;5096281;28;8872;-59
2023/07/31 05:51:50;;;;;;;;;7.00;4.00;;;;;17.56;78.64;99218.59;5096291;28;8806;-60
2023/07/31 05:54:18;;;;;;;;;4.00;4.00;;;;;17.63;77.96;99224.06;5096738;28;8836;-60
2023/07/31 05:56:46;;;;;;;;;4.40;4.00;;;;;17.67;77.96;99204.66;5096228;28;8926;-59
2023/07/31 05:59:13;;;;;;;;;6.20;6.00;;;;;17.72;77.96;99199.56;5096846;28;8915;-59
2023/07/31 06:01:41;;;;;;;;;5.60;4.00;;;;;17.75;77.65;99199.19;5096733;28;8841;-61
2023/07/31 06:04:09;;;;;;;;;4.80;4.00;;;;;17.76;77.74;99190.09;5096722;28;8826;-59
2023/07/31 06:06:38;;;;;;;;;6.20;6.00;;;;;17.79;78.23;99197.81;5096183;28;8980;-60
2023/07/31 06:09:06;;;;;;;;;7.00;7.00;;;;;17.81;77.73;99193.06;5096860;28;8838;-61
2023/07/31 06:11:34;;;;;;;;;7.80;4.80;;;;;17.83;78.05;99192.88;5096544;28;8906;-60
2023/07/31 06:14:02;;;;;;;;;4.00;3.40;;;;;17.86;77.70;99187.97;5096474;28;9637;-60
2023/07/31 06:16:30;;;;;;;;;4.00;4.00;;;;;17.89;77.93;99200.19;5095820;28;8904;-61
2023/07/31 06:18:58;;;;;;;;;3.40;3.40;;;;;17.89;77.76;99184.88;5085119;28;8875;-60
2023/07/31 06:21:25;;;;;;;;;4.80;4.40;;;;;17.88;77.66;99183.22;5095640;28;8830;-61
2023/07/31 06:23:53;;;;;;;;;4.00;3.00;;;;;17.89;77.76;99186.72;5095845;28;8838;-57
2023/07/31 06:26:20;;;;;;;;;4.00;4.00;;;;;17.87;77.44;99186.94;5095813;28;8944;-61
2023/07/31 06:28:48;;;;;;;;;6.40;6.00;;;;;17.87;78.27;99195.03;5095797;28;8830;-60
2023/07/31 06:31:20;;;;;;;;;6.00;6.00;;;;;17.88;77.79;99188.59;5096162;28;8814;-60
2023/07/31 06:33:48;;;;;;;;;1.00;0.60;;;;;17.90;77.79;99186.56;5095930;28;8838;-60
2023/07/31 06:36:15;;;;;;;;;7.00;7.00;;;;;17.92;77.93;99176.41;5095783;28;8842;-58
2023/07/31 06:38:43;;;;;;;;;5.60;4.00;;;;;17.95;77.97;99180.59;5096437;28;8845;-60
2023/07/31 06:41:11;;;;;;;;;8.20;7.40;;;;;17.95;78.29;99170.69;5096036;28;8898;-60
2023/07/31 06:43:39;;;;;;;;;7.80;5.80;;;;;17.98;78.22;99172.97;5096365;28;8830;-61
2023/07/31 06:46:07;;;;;;;;;6.40;6.40;;;;;17.99;77.56;99179.22;5095224;28;8822;-60
2023/07/31 06:48:36;;;;;;;;;8.20;6.60;;;;;18.01;77.69;99191.50;5095900;28;8826;-60
2023/07/31 06:51:04;;;;;;;;;6.80;6.00;;;;;18.03;77.95;99169.72;5095181;28;8834;-60
2023/07/31 06:53:31;;;;;;;;;5.20;5.20;;;;;18.04;77.93;99163.31;5095486;28;8829;-60
2023/07/31 06:55:59;;;;;;;;;7.00;7.00;;;;;18.04;77.53;99152.53;5095154;28;8819;-58
2023/07/31 06:58:27;;;;;;;;;5.20;5.20;;;;;17.96;78.27;99172.34;5095258;28;9514;-60
2023/07/31 07:00:55;;;;;;;;;5.20;3.60;;;;;17.84;78.44;99167.63;5094267;28;8802;-60
2023/07/31 07:03:23;;;;;;;;;5.60;4.80;;;;;17.73;78.64;99176.16;5094845;28;9899;-60
2023/07/31 07:05:50;;;;;;;;;4.00;3.60;;;;;17.63;79.19;99178.28;5094852;28;8899;-58
2023/07/31 07:08:18;;;;;;;;;6.00;5.00;;;;;17.55;79.36;99176.50;5095409;28;8834;-60
2023/07/31 07:10:46;;;;;;;;;4.80;4.00;;;;;17.48;79.74;99172.88;5095314;28;8832;-60
2023/07/31 07:13:16;;;;;;;;;6.80;6.80;;;;;17.44;79.77;99178.81;5094768;28;8821;-59
2023/07/31 07:15:43;;;;;;;;;4.80;4.00;;;;;17.39;80.25;99175.88;5094770;28;8865;-60
2023/07/31 07:18:12;;;;;;;;;7.00;6.40;;;;;17.38;80.20;99174.19;5094759;28;9477;-58
2023/07/31 07:20:39;;;;;;;;;3.00;3.00;;;;;17.38;79.94;99169.63;5094002;28;8811;-60
2023/07/31 07:23:07;;;;;;;;;5.40;5.20;;;;;17.43;80.00;99172.63;5093930;28;8829;-58
2023/07/31 07:25:38;;;;;;;;;4.00;3.00;;;;;17.49;79.67;99163.81;5094347;28;8845;-58
2023/07/31 07:28:06;;;;;;;;;4.80;4.00;;;;;17.54;79.50;99169.47;5094363;28;8834;-57
2023/07/31 07:30:33;;;;;;;;;5.60;4.20;;;;;17.58;79.29;99173.47;5094999;28;8818;-60
2023/07/31 07:33:01;;;;;;;;;4.00;4.00;;;;;17.63;79.20;99172.91;5095271;28;8913;-60
2023/07/31 07:35:32;;;;;;;;;5.20;5.20;;;;;17.64;79.07;99171.88;5094601;28;8819;-59
2023/07/31 07:38:00;;;;;;;;;3.60;3.20;;;;;17.67;79.17;99172.34;5095043;28;8978;-58
2023/07/31 07:40:28;;;;;;;;;2.60;2.60;;;;;17.70;79.02;99182.75;5095279;28;8942;-60
2023/07/31 07:42:56;;;;;;;;;2.60;2.60;;;;;17.71;79.14;99176.34;5095053;28;8904;-60
2023/07/31 07:45:24;;;;;;;;;5.60;4.00;;;;;17.71;78.77;99176.34;5093561;28;8849;-58
2023/07/31 07:47:51;;;;;;;;;3.80;3.80;;;;;17.71;78.73;99170.13;5094151;28;8849;-60
2023/07/31 07:50:19;;;;;;;;;3.60;3.60;;;;;17.72;79.20;99178.03;5094690;28;8806;-58
2023/07/31 07:52:48;;;;;;;;;3.00;3.00;;;;;17.72;79.24;99175.34;5074632;28;8828;-60
2023/07/31 07:55:15;;;;;;;;;6.80;6.00;;;;;17.76;79.23;99165.84;5089491;28;8845;-58
2023/07/31 07:57:44;;;;;;;;;2.80;1.00;;;;;17.78;79.09;99162.97;5097853;28;8952;-57
2023/07/31 08:00:11;;;;;;;;;4.80;4.80;;;;;17.77;78.91;99164.00;5098653;28;8810;-59
2023/07/31 08:02:40;;;;;;;;;4.40;3.80;;;;;17.72;79.02;99156.47;5097980;28;8899;-58
2023/07/31 08:05:08;;;;;;;;;4.80;4.40;;;;;17.62;79.98;99157.78;5098599;28;8821;-60
2023/07/31 08:07:36;;;;;;;;;3.80;3.40;;;;;17.48;80.51;99151.34;5098242;28;8861;-60
2023/07/31 08:10:03;;;;;;;;;4.00;4.00;;;;;17.38;80.53;99145.41;5098864;28;8919;-60
2023/07/31 08:12:31;;;;;;;;;5.20;3.80;;;;;17.33;80.69;99158.53;5081310;28;8822;-59
2023/07/31 08:14:59;;;;;;;;;4.00;3.80;;;;;17.27;80.65;99166.53;5098573;28;8941;-59
2023/07/31 08:20:36;;;;;;;;;4.00;4.00;;;;;17.20;81.07;99154.81;5098217;28;8786;-58
2023/07/31 08:23:05;;;;;;;;;3.80;3.20;;;;;17.23;81.39;99147.22;5096923;28;8822;-60
2023/07/31 08:25:33;;;;;;;;;4.80;4.00;;;;;17.24;81.00;99140.00;5097643;28;8837;-57
2023/07/31 08:28:02;;;;;;;;;3.60;3.60;;;;;17.23;81.23;99141.81;5097774;28;8806;-58
2023/07/31 08:30:30;;;;;;;;;3.20;3.20;;;;;17.27;81.41;99142.31;5097180;28;8822;-60
2023/07/31 08:32:58;;;;;;;;;4.00;4.00;;;;;17.29;81.09;99135.72;5097787;28;8842;-60
2023/07/31 08:35:27;;;;;;;;;3.00;3.00;;;;;17.29;81.05;99135.72;5097947;28;8840;-60
2023/07/31 08:37:55;;;;;;;;;3.20;1.80;;;;;17.26;81.48;99149.56;5098675;28;8862;-58
2023/07/31 08:40:23;;;;;;;;;3.00;2.60;;;;;17.27;81.63;99145.00;5097820;28;8829;-60
2023/07/31 08:42:51;;;;;;;;;4.00;3.40;;;;;17.29;80.79;99141.09;5097593;28;8826;-60
2023/07/31 08:45:19;;;;;;;;;1.40;1.40;;;;;17.35;81.56;99134.13;5097380;28;8892;-59
2023/07/31 08:47:47;;;;;;;;;3.00;3.00;;;;;17.39;80.87;99136.31;5097434;28;8936;-59
2023/07/31 08:50:15;;;;;;;;;4.00;3.60;;;;;17.42;81.19;99130.56;5098211;28;9575;-59
2023/07/31 08:52:45;;;;;;;;;5.20;5.20;;;;;17.46;80.92;99129.16;5097696;28;8920;-57
2023/07/31 08:55:13;;;;;;;;;3.00;3.00;;;;;17.46;81.43;99131.03;5097573;28;8864;-59
2023/07/31 08:57:41;;;;;;;;;3.00;3.00;;;;;17.52;80.99;99131.13;5097903;28;8948;-59
2023/07/31 09:00:09;;;;;;;;;3.60;3.60;;;;;17.62;81.08;99133.53;5098260;28;8883;-60
2023/07/31 09:02:37;;;;;;;;;3.80;3.20;;;;;17.71;80.92;99130.56;5096686;28;8968;-59
2023/07/31 09:05:05;;;;;;;;;3.00;1.80;;;;;17.87;80.45;99130.38;5096578;28;8830;-59
2023/07/31 09:07:33;;;;;;;;;4.00;4.00;;;;;18.00;80.21;99125.13;5097210;28;8988;-57
2023/07/31 09:10:01;;;;;;;;;3.00;2.20;;;;;18.06;80.41;99126.25;5097744;28;8810;-59
2023/07/31 09:12:30;;;;;;;;;3.00;3.00;;;;;18.07;80.21;99128.72;5097314;28;8834;-60
2023/07/31 09:14:57;;;;;;;;;1.00;1.00;;;;;18.06;80.20;99120.84;5097567;28;8810;-57
2023/07/31 09:17:25;;;;;;;;;3.00;3.00;;;;;18.11;80.12;99138.13;5097282;28;8829;-60
2023/07/31 09:19:53;;;;;;;;;1.00;1.00;;;;;18.21;79.56;99132.44;5096763;28;9006;-59
2023/07/31 09:22:21;;;;;;;;;0.00;0.00;;;;;18.15;79.79;99142.09;5096081;28;8825;-59
2023/07/31 09:24:49;;;;;;;;;3.00;3.00;;;;;17.99;80.71;99128.84;5096864;28;8818;-59
2023/07/31 09:27:16;;;;;;;;;1.00;1.00;;;;;17.91;80.87;99128.94;5096687;28;8860;-56
2023/07/31 09:29:44;;;;;;;;;3.00;1.40;;;;;17.81;80.85;99131.13;5096614;28;8821;-56
2023/07/31 09:32:12;;;;;;;;;0.80;0.00;;;;;17.74;81.34;99123.94;5097019;28;8830;-59
2023/07/31 09:34:42;;;;;;;;;3.00;3.00;;;;;17.70;81.27;99139.66;5097052;28;8898;-59
2023/07/31 09:37:12;;;;;;;;;4.80;3.00;;;;;17.65;81.39;99134.00;5096867;28;8876;-59
2023/07/31 09:39:40;;;;;;;;;3.00;3.00;;;;;17.57;81.73;99139.50;5095821;28;8830;-59
2023/07/31 09:42:08;;;;;;;;;1.40;1.40;;;;;17.48;82.42;99129.81;5095861;28;8845;-58
2023/07/31 09:44:36;;;;;;;;;1.00;1.00;;;;;17.37;82.45;99122.22;5096376;28;8884;-58
2023/07/31 09:47:03;;;;;;;;;0.00;0.00;;;;;17.28;82.84;99136.75;5096489;28;8923;-59
2023/07/31 09:49:31;;;;;;;;;3.80;3.00;;;;;17.25;82.71;99128.19;5096709;28;8834;-58
2023/07/31 09:51:59;;;;;;;;;3.00;3.00;;;;;17.24;82.62;99130.03;5096666;28;8830;-58
2023/07/31 09:54:28;;;;;;;;;4.00;3.00;;;;;17.27;83.23;99129.69;5096343;28;8960;-57
2023/07/31 09:56:56;;;;;;;;;1.00;1.00;;;;;17.25;82.99;99129.00;5096094;28;8830;-59
2023/07/31 09:59:26;;;;;;;;;3.00;2.20;;;;;17.27;83.09;99124.31;5095614;28;8833;-59
2023/07/31 10:01:53;;;;;;;;;3.00;3.00;;;;;17.28;82.76;99120.59;5095645;28;8943;-59
2023/07/31 10:04:25;;;;;;;;;3.00;3.00;;;;;17.30;82.55;99113.16;5095440;28;9538;-58
2023/07/31 10:06:53;;;;;;;;;1.00;1.00;;;;;17.35;82.26;99113.44;5095570;28;8845;-59
2023/07/31 10:09:21;;;;;;;;;2.60;2.60;;;;;17.46;82.65;99109.50;5095116;28;8864;-59
2023/07/31 10:11:51;;;;;;;;;2.20;2.20;;;;;17.63;82.44;99108.28;5095587;28;8849;-59
2023/07/31 10:14:19;;;;;;;;;1.00;1.00;;;;;17.75;82.05;99109.50;5095964;28;8853;-59
2023/07/31 10:16:46;;;;;;;;;4.00;4.00;;;;;17.72;81.93;99107.16;5095867;28;8928;-59
2023/07/31 10:19:14;;;;;;;;;3.00;2.20;;;;;17.72;82.07;99099.91;5096126;28;8834;-57
2023/07/31 10:21:42;;;;;;;;;1.00;1.00;;;;;17.73;81.93;99106.97;5094720;28;9530;-57
2023/07/31 10:24:11;;;;;;;;;1.80;1.00;;;;;17.72;82.11;99102.63;5095085;28;8907;-58
2023/07/31 10:26:39;;;;;;;;;3.40;3.00;;;;;17.76;81.78;99100.38;5094621;28;8837;-59
2023/07/31 10:29:07;;;;;;;;;1.80;1.00;;;;;17.81;81.68;99097.94;5095945;28;8834;-59
2023/07/31 10:31:35;;;;;;;;;0.80;0.80;;;;;17.82;81.90;99103.16;5095604;28;8964;-59
2023/07/31 10:34:05;;;;;;;;;0.60;0.60;;;;;17.84;81.91;99098.41;5095651;28;9484;-59
2023/07/31 10:36:34;;;;;;;;;1.80;1.00;;;;;17.83;82.33;99090.53;5095554;28;8830;-59
2023/07/31 10:39:02;;;;;;;;;1.00;1.00;;;;;17.86;81.95;99096.38;5095118;28;8822;-58
2023/07/31 10:41:30;;;;;;;;;4.00;4.00;;;;;17.86;81.92;99099.06;5094765;28;8855;-60
2023/07/31 10:43:58;;;;;;;;;3.00;2.60;;;;;17.92;82.43;99095.59;5095419;28;8871;-59
2023/07/31 10:46:25;;;;;;;;;5.60;4.00;;;;;18.02;81.52;99095.31;5095368;28;8834;-58
2023/07/31 10:48:53;;;;;;;;;1.00;1.00;;;;;18.03;82.09;99094.28;5095545;28;8842;-59
2023/07/31 10:51:22;;;;;;;;;3.80;3.00;;;;;18.00;82.01;99087.41;5094835;28;8826;-59
2023/07/31 10:53:51;;;;;;;;;0.00;0.00;;;;;18.02;82.21;99095.31;5094606;28;8867;-57
2023/07/31 10:56:22;;;;;;;;;2.60;1.80;;;;;18.02;82.45;99089.91;5094704;28;8832;-58
2023/07/31 10:58:50;;;;;;;;;1.80;1.80;;;;;18.05;82.42;99095.75;5094831;28;8830;-60
2023/07/31 11:01:18;;;;;;;;;1.00;1.00;;;;;18.07;81.95;99090.19;5094595;28;8852;-60
2023/07/31 11:03:46;;;;;;;;;3.00;1.00;;;;;17.98;82.37;99094.84;5094463;28;8838;-58
2023/07/31 11:06:14;;;;;;;;;3.00;1.80;;;;;17.93;82.56;99086.47;5094929;28;8830;-57
2023/07/31 11:08:45;;;;;;;;;1.00;1.00;;;;;17.91;82.77;99093.94;5094189;28;8848;-59
2023/07/31 11:11:13;;;;;;;;;3.20;3.00;;;;;17.87;83.09;99084.56;5094582;28;8847;-57
2023/07/31 11:13:44;;;;;;;;;1.00;1.00;;;;;17.80;83.33;99093.56;5094631;28;8915;-57
2023/07/31 11:16:12;;;;;;;;;3.00;3.00;;;;;17.77;83.36;99086.69;5094366;28;8818;-59
2023/07/31 11:18:40;;;;;;;;;1.00;1.00;;;;;17.71;83.40;99086.63;5094573;28;8854;-58
2023/07/31 11:21:08;;;;;;;;;2.20;2.20;;;;;17.71;83.23;99084.78;5094456;28;9016;-58
2023/07/31 11:23:36;;;;;;;;;1.00;1.00;;;;;17.71;83.49;99082.09;5094672;28;8834;-59
2023/07/31 11:26:06;;;;;;;;;3.00;1.00;;;;;17.69;83.68;99100.28;5094820;28;8834;-58
2023/07/31 11:28:34;;;;;;;;;3.80;3.00;;;;;17.70;83.58;99088.47;5093871;28;8864;-59
2023/07/31 11:31:02;;;;;;;;;1.00;1.00;;;;;17.72;83.93;99091.84;5094826;28;8837;-57
2023/07/31 11:33:30;;;;;;;;;1.00;1.00;;;;;17.70;83.78;99101.94;5093976;28;8842;-58
2023/07/31 11:35:58;;;;;;;;;0.80;0.80;;;;;17.67;83.15;99096.94;5093563;28;8822;-56
2023/07/31 11:38:26;;;;;;;;;0.60;0.60;;;;;17.67;83.51;99094.25;5093591;28;8845;-59
2023/07/31 11:40:54;;;;;;;;;3.00;3.00;;;;;17.70;83.23;99091.16;5094134;28;9515;-59
2023/07/31 11:43:22;;;;;;;;;1.00;1.00;;;;;17.76;83.43;99097.69;5094115;28;8830;-57
2023/07/31 11:45:53;;;;;;;;;1.00;1.00;;;;;17.85;82.89;99081.22;5093366;28;8833;-58
2023/07/31 11:48:21;;;;;;;;;4.80;3.00;;;;;17.98;82.44;99077.84;5094556;28;8826;-58